createdAt,value
2022-11-26T00:03:32.904Z,100810.00
2022-11-26T00:08:36.519Z,100810.00
2022-11-26T00:13:40.688Z,100812.81
2022-11-26T00:18:43.612Z,100810.13
2022-11-26T00:23:46.723Z,100815.63
2022-11-26T00:28:53.679Z,100817.56
2022-11-26T00:33:56.491Z,100819.28
2022-11-26T00:39:03.200Z,100823.75
2022-11-26T00:44:18.516Z,100838.19
2022-11-26T00:49:21.820Z,100834.44
2022-11-26T00:54:24.928Z,100840.88
2022-11-26T00:59:29.010Z,100849.78
2022-11-26T01:04:31.827Z,100858.94
2022-11-26T01:09:34.616Z,100861.00
2022-11-26T01:14:39.148Z,100858.06
2022-11-26T01:19:42.103Z,100865.84
2022-11-26T01:24:44.838Z,100870.47
2022-11-26T01:29:49.000Z,100872.66
2022-11-26T01:34:52.048Z,100874.88
2022-11-26T01:39:54.781Z,100881.66
2022-11-26T01:44:58.973Z,100886.38
2022-11-26T01:50:39.187Z,100891.16
2022-11-26T01:55:46.495Z,100891.56
2022-11-26T02:00:52.188Z,100899.94
2022-11-26T02:06:02.598Z,100899.34
2022-11-26T02:11:16.778Z,100913.25
2022-11-26T02:16:31.578Z,100913.34
2022-11-26T02:21:37.166Z,100916.34
2022-11-26T02:27:03.601Z,100932.66
2022-11-26T02:32:12.191Z,100934.84
2022-11-26T02:37:21.276Z,100944.03
2022-11-26T02:42:27.485Z,100947.75
2022-11-26T02:47:34.773Z,100951.44
2022-11-26T02:52:41.448Z,100956.06
2022-11-26T02:57:48.405Z,100965.13
2022-11-26T03:03:01.565Z,100959.06
2022-11-26T03:08:06.753Z,100958.38
2022-11-26T03:13:09.601Z,100963.00
2022-11-26T03:18:13.819Z,100972.06
2022-11-26T03:23:16.603Z,100981.19
2022-11-26T03:28:19.400Z,100995.66
2022-11-26T03:33:23.671Z,101004.81
2022-11-26T03:38:26.700Z,101011.25
2022-11-26T03:43:30.173Z,101010.88
2022-11-26T03:48:34.373Z,101018.47
2022-11-26T03:53:37.185Z,101022.31
2022-11-26T03:58:39.991Z,101028.19
2022-11-26T04:03:44.119Z,101032.72
2022-11-26T04:08:46.944Z,101026.59
2022-11-26T04:13:49.757Z,101037.47
2022-11-26T04:18:54.058Z,101049.38
2022-11-26T04:23:56.934Z,101047.06
2022-11-26T04:28:59.776Z,101066.28
2022-11-26T04:34:03.934Z,101063.09
2022-11-26T04:39:06.961Z,101081.25
2022-11-26T04:44:09.820Z,101082.47
2022-11-26T04:49:14.000Z,101094.38
2022-11-26T04:54:16.801Z,101108.31
2022-11-26T04:59:19.526Z,101106.84
2022-11-26T05:04:23.821Z,101118.81
2022-11-26T05:09:26.601Z,101120.91
2022-11-26T05:14:29.522Z,101121.41
2022-11-26T05:19:34.156Z,101134.25
2022-11-26T05:24:38.081Z,101140.69
2022-11-26T05:29:41.309Z,101147.50
2022-11-26T05:34:45.614Z,101158.50
2022-11-26T05:39:48.409Z,101163.22
2022-11-26T05:44:51.295Z,101167.09
2022-11-26T05:49:55.607Z,101166.28
2022-11-26T05:54:58.448Z,101182.63
2022-11-26T06:00:01.275Z,101181.03
2022-11-26T06:05:16.243Z,101199.41
2022-11-26T06:10:19.821Z,101200.44
2022-11-26T06:15:22.578Z,101198.94
2022-11-26T06:20:26.943Z,101208.03
2022-11-26T06:25:29.734Z,101208.38
2022-11-26T06:30:32.547Z,101218.31
2022-11-26T06:35:36.885Z,101219.28
2022-11-26T06:40:39.809Z,101227.56
2022-11-26T06:45:42.609Z,101235.81
2022-11-26T06:50:46.726Z,101236.69
2022-11-26T06:55:49.496Z,101249.56
2022-11-26T07:00:52.323Z,101241.56
2022-11-26T07:05:56.549Z,101255.25
2022-11-26T07:11:03.324Z,101264.34
2022-11-26T07:16:07.300Z,101276.97
2022-11-26T07:21:14.160Z,101283.34
2022-11-26T07:26:19.333Z,101284.22
2022-11-26T07:31:23.880Z,101291.63
2022-11-26T07:36:30.463Z,101295.34
2022-11-26T07:41:33.407Z,101294.56
2022-11-26T07:46:39.282Z,101299.13
2022-11-26T07:51:43.823Z,101307.28
2022-11-26T07:56:46.599Z,101302.97
2022-11-26T08:01:49.466Z,101311.00
2022-11-26T08:06:53.585Z,101308.81
2022-11-26T08:11:56.387Z,101316.09
2022-11-26T08:16:59.176Z,101317.16
2022-11-26T08:22:03.452Z,101319.78
2022-11-26T08:27:06.387Z,101323.63
2022-11-26T08:32:09.180Z,101328.22
2022-11-26T08:37:13.462Z,101328.88
2022-11-26T08:42:16.336Z,101337.06
2022-11-26T08:47:19.123Z,101352.13
2022-11-26T08:52:23.528Z,101349.91
2022-11-26T08:57:29.483Z,101359.66
2022-11-26T09:02:34.145Z,101360.25
2022-11-26T09:07:38.369Z,101359.50
2022-11-26T09:12:41.309Z,101372.41
2022-11-26T09:17:44.076Z,101378.19
2022-11-26T09:22:48.595Z,101384.19
2022-11-26T09:27:51.395Z,101381.16
2022-11-26T09:32:54.213Z,101386.13
2022-11-26T09:37:58.562Z,101386.72
2022-11-26T09:43:08.080Z,101388.41
2022-11-26T09:48:17.230Z,101401.66
2022-11-26T09:53:25.671Z,101401.53
2022-11-26T09:58:35.195Z,101400.59
2022-11-26T10:03:39.042Z,101395.97
2022-11-26T10:09:09.378Z,101405.84
2022-11-26T10:14:28.560Z,101403.00
2022-11-26T10:19:42.530Z,101409.19
2022-11-26T10:24:49.152Z,101409.13
2022-11-26T10:29:55.388Z,101419.72
2022-11-26T10:34:59.537Z,101409.81
2022-11-26T10:40:20.426Z,101418.78
2022-11-26T10:45:25.595Z,101419.53
2022-11-26T10:55:54.882Z,101416.63
2022-11-26T11:01:02.364Z,101414.81
2022-11-26T11:06:14.246Z,101414.81
2022-11-26T11:11:22.797Z,101408.50
2022-11-26T11:16:28.445Z,101406.56
2022-11-26T11:21:35.433Z,101412.81
2022-11-26T11:26:44.562Z,101421.72
2022-11-26T11:31:47.652Z,101425.16
2022-11-26T11:37:01.272Z,101417.81
2022-11-26T11:42:09.169Z,101413.94
2022-11-26T11:47:23.715Z,101410.31
2022-11-26T11:52:36.501Z,101425.56
2022-11-26T11:57:59.207Z,101408.28
2022-11-26T12:03:31.485Z,101417.88
2022-11-26T12:08:45.345Z,101416.72
2022-11-26T12:13:53.732Z,101422.09
2022-11-26T12:19:02.110Z,101431.81
2022-11-26T12:24:12.718Z,101427.00
2022-11-26T12:29:22.389Z,101431.50
2022-11-26T12:34:33.311Z,101440.44
2022-11-26T12:39:45.321Z,101442.47
2022-11-26T12:44:54.464Z,101430.56
2022-11-26T12:50:08.132Z,101436.94
2022-11-26T12:55:18.499Z,101435.88
2022-11-26T13:00:30.116Z,101436.97
2022-11-26T13:05:51.562Z,101428.81
2022-11-26T13:11:17.902Z,101435.94
2022-11-26T13:16:27.561Z,101433.94
2022-11-26T13:21:44.169Z,101439.03
2022-11-26T13:27:02.559Z,101439.19
2022-11-26T13:32:26.032Z,101428.75
2022-11-26T13:37:52.317Z,101429.31
2022-11-26T13:43:30.233Z,101431.16
2022-11-26T13:48:43.220Z,101431.53
2022-11-26T13:53:51.271Z,101436.09
2022-11-26T13:58:59.325Z,101438.97
2022-11-26T14:04:05.456Z,101444.28
2022-11-26T14:09:46.719Z,101446.88
2022-11-26T14:14:50.557Z,101452.44
2022-11-26T14:20:05.643Z,101456.03
2022-11-26T14:25:12.040Z,101454.53
2022-11-26T14:30:22.493Z,101448.00
2022-11-26T14:35:33.875Z,101457.41
2022-11-26T14:40:39.532Z,101450.72
2022-11-26T14:45:43.148Z,101455.56
2022-11-26T14:50:47.428Z,101450.56
2022-11-26T14:55:51.943Z,101452.50
2022-11-26T15:01:08.019Z,101453.72
2022-11-26T15:06:26.613Z,101447.66
2022-11-26T15:11:29.672Z,101444.91
2022-11-26T15:16:35.025Z,101445.94
2022-11-26T15:21:42.163Z,101443.53
2022-11-26T15:26:47.953Z,101442.56
2022-11-26T15:31:50.787Z,101438.22
2022-11-26T15:36:55.241Z,101452.66
2022-11-26T15:42:04.006Z,101449.19
2022-11-26T15:47:06.855Z,101456.22
2022-11-26T15:52:14.543Z,101460.81
2022-11-26T15:57:25.141Z,101463.50
2022-11-26T16:02:31.201Z,101471.47
2022-11-26T16:07:35.696Z,101465.44
2022-11-26T16:12:44.046Z,101473.59
2022-11-26T16:17:48.609Z,101477.22
2022-11-26T16:22:56.886Z,101475.47
2022-11-26T16:28:05.260Z,101484.47
2022-11-26T16:33:08.374Z,101482.66
2022-11-26T16:38:20.140Z,101492.59
2022-11-26T16:43:23.804Z,101488.16
2022-11-26T16:48:28.642Z,101488.16
2022-11-26T16:53:33.449Z,101491.94
2022-11-26T16:58:38.779Z,101498.13
2022-11-26T17:03:42.746Z,101501.69
2022-11-26T17:08:49.797Z,101505.97
2022-11-26T17:13:53.111Z,101509.41
2022-11-26T17:18:55.947Z,101512.00
2022-11-26T17:24:00.112Z,101519.00
2022-11-26T17:29:03.079Z,101521.50
2022-11-26T17:34:05.848Z,101515.75
2022-11-26T17:39:12.297Z,101518.13
2022-11-26T17:44:15.150Z,101524.91
2022-11-26T17:49:18.114Z,101529.00
2022-11-26T17:54:22.231Z,101535.72
2022-11-26T17:59:25.099Z,101532.59
2022-11-26T18:04:27.923Z,101539.41
2022-11-26T18:09:32.915Z,101535.44
2022-11-26T18:14:36.088Z,101532.44
2022-11-26T18:19:43.599Z,101533.03
2022-11-26T18:24:56.350Z,101536.25
2022-11-26T18:30:00.314Z,101530.47
2022-11-26T18:35:03.436Z,101532.91
2022-11-26T18:40:11.138Z,101534.41
2022-11-26T18:45:16.513Z,101539.50
2022-11-26T18:50:19.718Z,101533.81
2022-11-26T18:55:23.908Z,101538.19
2022-11-26T19:00:26.835Z,101530.66
2022-11-26T19:05:29.590Z,101527.75
2022-11-26T19:10:34.136Z,101531.88
2022-11-26T19:15:41.421Z,101524.50
2022-11-26T19:20:52.879Z,101526.88
2022-11-26T19:25:57.489Z,101528.63
2022-11-26T19:31:01.939Z,101519.28
2022-11-26T19:36:06.449Z,101513.66
2022-11-26T19:41:11.231Z,101525.16
2022-11-26T19:46:17.556Z,101524.84
2022-11-26T19:51:22.557Z,101525.63
2022-11-26T19:56:28.637Z,101534.47
2022-11-26T20:01:34.437Z,101535.16
2022-11-26T20:06:38.043Z,101527.88
2022-11-26T20:11:42.454Z,101534.78
2022-11-26T20:16:46.147Z,101532.84
2022-11-26T20:21:50.867Z,101544.38
2022-11-26T20:26:55.174Z,101541.56
2022-11-26T20:31:58.002Z,101536.91
2022-11-26T20:37:01.829Z,101539.41
2022-11-26T20:42:06.150Z,101527.66
2022-11-26T20:47:09.056Z,101523.16
2022-11-26T20:52:11.909Z,101529.25
2022-11-26T20:57:18.071Z,101521.94
2022-11-26T21:02:20.855Z,101520.16
2022-11-26T21:07:23.952Z,101520.94
2022-11-26T21:12:28.950Z,101521.78
2022-11-26T21:17:31.708Z,101525.28
2022-11-26T21:22:34.628Z,101519.88
2022-11-26T21:27:38.803Z,101530.44
2022-11-26T21:32:41.599Z,101533.22
2022-11-26T21:37:44.460Z,101533.22
2022-11-26T21:42:48.778Z,101535.72
2022-11-26T21:47:52.033Z,101533.84
2022-11-26T21:52:54.821Z,101532.88
2022-11-26T21:57:59.195Z,101530.97
2022-11-26T22:03:04.938Z,101526.44
2022-11-26T22:08:09.995Z,101527.34
2022-11-26T22:13:14.429Z,101529.06
2022-11-26T22:18:17.259Z,101540.81
2022-11-26T22:23:22.721Z,101543.44
2022-11-26T22:28:30.170Z,101536.97
2022-11-26T22:33:33.206Z,101547.78
2022-11-26T22:38:36.932Z,101543.34
2022-11-26T22:43:42.042Z,101543.25
2022-11-26T22:48:49.069Z,101548.66
2022-11-26T22:53:52.245Z,101547.72
2022-11-26T22:58:56.853Z,101543.97
2022-11-26T23:04:01.196Z,101540.31
2022-11-26T23:09:05.933Z,101543.09
2022-11-26T23:14:11.974Z,101542.03
2022-11-26T23:19:16.332Z,101535.78
2022-11-26T23:24:19.131Z,101529.41
2022-11-26T23:29:23.516Z,101531.19
2022-11-26T23:34:26.274Z,101533.78
2022-11-26T23:39:29.165Z,101524.81
2022-11-26T23:44:33.504Z,101522.03
2022-11-26T23:49:36.403Z,101524.72
2022-11-26T23:54:39.160Z,101522.81
2022-11-26T23:59:43.349Z,101514.91
